createdAt,value
2022-09-29T00:02:20.730Z,14.93
2022-09-29T00:04:47.552Z,14.92
2022-09-29T00:07:14.761Z,14.92
2022-09-29T00:09:41.557Z,14.91
2022-09-29T00:12:08.363Z,14.87
2022-09-29T00:14:35.588Z,14.86
2022-09-29T00:17:02.468Z,14.89
2022-09-29T00:19:29.408Z,14.87
2022-09-29T00:21:56.464Z,14.87
2022-09-29T00:24:23.277Z,14.82
2022-09-29T00:26:50.073Z,14.81
2022-09-29T00:29:17.048Z,14.84
2022-09-29T00:31:44.065Z,14.83
2022-09-29T00:34:10.954Z,14.81
2022-09-29T00:36:38.401Z,14.79
2022-09-29T00:39:05.295Z,14.80
2022-09-29T00:41:34.395Z,14.78
2022-09-29T00:44:05.202Z,14.73
2022-09-29T00:46:40.816Z,14.78
2022-09-29T00:49:16.831Z,14.75
2022-09-29T00:51:46.855Z,14.76
2022-09-29T00:54:13.843Z,14.75
2022-09-29T00:56:40.688Z,14.74
2022-09-29T00:59:09.017Z,14.73
2022-09-29T01:01:36.100Z,14.72
2022-09-29T01:04:05.103Z,14.67
2022-09-29T01:06:38.071Z,14.65
2022-09-29T01:09:07.186Z,14.63
2022-09-29T01:11:33.962Z,14.64
2022-09-29T01:14:03.885Z,14.61
2022-09-29T01:16:32.394Z,14.64
2022-09-29T01:19:14.017Z,14.63
2022-09-29T01:21:58.508Z,14.61
2022-09-29T01:24:43.428Z,14.63
2022-09-29T01:27:27.277Z,14.58
2022-09-29T01:29:56.805Z,14.60
2022-09-29T01:32:32.936Z,14.59
2022-09-29T01:35:31.257Z,14.57
2022-09-29T01:38:18.509Z,14.61
2022-09-29T01:41:30.368Z,14.54
2022-09-29T01:44:01.382Z,14.56
2022-09-29T01:46:31.184Z,14.57
2022-09-29T01:48:58.209Z,14.58
2022-09-29T01:51:36.785Z,14.56
2022-09-29T01:54:06.498Z,14.54
2022-09-29T01:56:38.517Z,14.54
2022-09-29T01:59:32.098Z,14.52
2022-09-29T02:02:01.466Z,14.52
2022-09-29T02:04:33.376Z,14.53
2022-09-29T02:07:07.364Z,14.48
2022-09-29T02:09:38.720Z,14.47
2022-09-29T02:12:07.285Z,14.43
2022-09-29T02:14:38.622Z,14.44
2022-09-29T02:17:36.588Z,14.44
2022-09-29T02:20:03.953Z,14.37
2022-09-29T02:22:31.013Z,14.41
2022-09-29T02:24:59.216Z,14.42
2022-09-29T02:27:28.673Z,14.42
2022-09-29T02:29:56.644Z,14.38
2022-09-29T02:32:23.381Z,14.37
2022-09-29T02:34:50.582Z,14.40
2022-09-29T02:37:36.906Z,14.37
2022-09-29T02:40:03.887Z,14.36
2022-09-29T02:42:55.802Z,14.36
2022-09-29T02:45:41.246Z,14.40
2022-09-29T02:48:31.720Z,14.35
2022-09-29T02:51:08.164Z,14.33
2022-09-29T02:54:12.716Z,14.37
2022-09-29T02:56:48.076Z,14.33
2022-09-29T02:59:25.145Z,14.32
2022-09-29T03:01:53.133Z,14.29
2022-09-29T03:04:21.000Z,14.28
2022-09-29T03:06:48.005Z,14.30
2022-09-29T03:09:15.093Z,14.27
2022-09-29T03:11:42.669Z,14.28
2022-09-29T03:14:09.541Z,14.24
2022-09-29T03:16:37.082Z,14.20
2022-09-29T03:19:05.415Z,14.23
2022-09-29T03:21:32.718Z,14.18
2022-09-29T03:23:59.717Z,14.22
2022-09-29T03:26:26.784Z,14.18
2022-09-29T03:28:53.629Z,14.17
2022-09-29T03:31:20.485Z,14.18
2022-09-29T03:33:47.617Z,14.17
2022-09-29T03:36:14.456Z,14.21
2022-09-29T03:38:41.312Z,14.19
2022-09-29T03:41:08.389Z,14.17
2022-09-29T03:43:35.196Z,14.16
2022-09-29T03:46:02.220Z,14.18
2022-09-29T03:48:31.315Z,14.16
2022-09-29T03:50:58.146Z,14.17
2022-09-29T03:53:24.973Z,14.15
2022-09-29T03:55:52.097Z,14.14
2022-09-29T03:58:19.093Z,14.14
2022-09-29T04:00:48.068Z,14.15
2022-09-29T04:03:15.396Z,14.12
2022-09-29T04:05:42.189Z,14.10
2022-09-29T04:08:09.012Z,14.13
2022-09-29T04:10:39.645Z,14.10
2022-09-29T04:13:06.720Z,14.11
2022-09-29T04:15:33.595Z,14.10
2022-09-29T04:18:00.656Z,14.10
2022-09-29T04:20:27.445Z,14.05
2022-09-29T04:22:54.240Z,14.09
2022-09-29T04:25:21.290Z,14.06
2022-09-29T04:27:48.073Z,14.06
2022-09-29T04:30:15.255Z,14.04
2022-09-29T04:32:42.716Z,14.02
2022-09-29T04:35:09.658Z,14.00
2022-09-29T04:37:36.451Z,13.99
2022-09-29T04:40:04.993Z,14.00
2022-09-29T04:42:31.997Z,13.95
2022-09-29T04:44:58.781Z,14.01
2022-09-29T04:47:25.869Z,14.02
2022-09-29T04:49:52.663Z,14.01
2022-09-29T04:52:19.492Z,14.02
2022-09-29T04:54:46.576Z,14.01
2022-09-29T04:57:13.324Z,14.00
2022-09-29T04:59:40.156Z,13.97
2022-09-29T05:02:07.260Z,13.95
2022-09-29T05:04:34.124Z,13.94
2022-09-29T05:07:00.936Z,13.94
2022-09-29T05:09:33.014Z,13.92
2022-09-29T05:12:01.035Z,13.92
2022-09-29T05:14:28.019Z,13.94
2022-09-29T05:16:55.728Z,13.96
2022-09-29T05:19:22.559Z,13.94
2022-09-29T05:21:49.311Z,13.95
2022-09-29T05:24:16.528Z,13.91
2022-09-29T05:26:43.303Z,13.94
2022-09-29T05:29:10.071Z,13.92
2022-09-29T05:31:37.236Z,13.91
2022-09-29T05:34:04.044Z,13.93
2022-09-29T05:36:30.919Z,13.87
2022-09-29T05:38:57.979Z,13.86
2022-09-29T05:41:24.931Z,13.88
2022-09-29T05:43:53.577Z,13.87
2022-09-29T05:46:20.911Z,13.90
2022-09-29T05:48:47.983Z,13.90
2022-09-29T05:51:19.461Z,13.91
2022-09-29T05:53:49.663Z,13.89
2022-09-29T05:56:19.222Z,13.90
2022-09-29T05:58:46.003Z,13.90
2022-09-29T06:01:20.947Z,13.90
2022-09-29T06:03:47.851Z,13.89
2022-09-29T06:06:22.564Z,13.87
2022-09-29T06:08:49.626Z,13.87
2022-09-29T06:11:24.834Z,13.89
2022-09-29T06:13:52.542Z,13.91
2022-09-29T06:16:21.402Z,13.91
2022-09-29T06:18:48.341Z,13.90
2022-09-29T06:21:20.084Z,13.91
2022-09-29T06:23:47.218Z,13.89
2022-09-29T06:26:16.486Z,13.92
2022-09-29T06:28:45.987Z,13.94
2022-09-29T06:31:20.950Z,13.96
2022-09-29T06:33:47.981Z,13.94
2022-09-29T06:36:42.156Z,13.92
2022-09-29T06:39:10.700Z,13.95
2022-09-29T06:41:38.057Z,13.98
2022-09-29T06:44:04.928Z,13.96
2022-09-29T06:46:31.742Z,13.99
2022-09-29T06:48:58.807Z,13.97
2022-09-29T06:51:37.618Z,14.03
2022-09-29T06:54:14.736Z,14.02
2022-09-29T06:56:42.709Z,14.00
2022-09-29T06:59:09.581Z,14.08
2022-09-29T07:01:36.684Z,14.11
2022-09-29T07:04:03.619Z,14.15
2022-09-29T07:06:30.646Z,14.16
2022-09-29T07:08:58.887Z,14.17
2022-09-29T07:11:26.486Z,14.19
2022-09-29T07:13:54.832Z,14.22
2022-09-29T07:16:24.319Z,14.23
2022-09-29T07:18:52.798Z,14.25
2022-09-29T07:21:19.753Z,14.27
2022-09-29T07:23:47.028Z,14.28
2022-09-29T07:26:16.612Z,14.31
2022-09-29T07:28:44.273Z,14.36
2022-09-29T07:31:15.556Z,14.38
2022-09-29T07:33:46.378Z,14.36
2022-09-29T07:36:14.123Z,14.40
2022-09-29T07:38:41.035Z,14.48
2022-09-29T07:41:11.766Z,14.51
2022-09-29T07:43:39.254Z,14.57
2022-09-29T07:46:06.826Z,14.56
2022-09-29T07:48:33.915Z,14.57
2022-09-29T07:51:11.263Z,14.62
2022-09-29T07:53:38.154Z,14.66
2022-09-29T07:56:06.834Z,14.69
2022-09-29T07:58:33.724Z,14.72
2022-09-29T08:01:01.460Z,14.76
2022-09-29T08:03:30.228Z,14.76
2022-09-29T08:05:57.905Z,14.80
2022-09-29T08:08:25.054Z,14.82
2022-09-29T08:10:53.905Z,14.87
2022-09-29T08:13:21.054Z,14.91
2022-09-29T08:15:47.843Z,14.96
2022-09-29T08:18:14.887Z,14.99
2022-09-29T08:20:41.816Z,15.05
2022-09-29T08:23:08.897Z,15.07
2022-09-29T08:25:36.295Z,15.11
2022-09-29T08:28:03.167Z,15.13
2022-09-29T08:30:30.182Z,15.20
2022-09-29T08:32:57.357Z,15.20
2022-09-29T08:35:25.433Z,15.27
2022-09-29T08:37:55.206Z,15.32
2022-09-29T08:40:22.408Z,15.38
2022-09-29T08:42:55.272Z,15.39
2022-09-29T08:45:52.408Z,15.47
2022-09-29T08:48:26.124Z,15.55
2022-09-29T08:50:58.273Z,15.61
2022-09-29T08:53:29.003Z,15.69
2022-09-29T08:56:04.794Z,15.76
2022-09-29T08:58:32.322Z,15.85
2022-09-29T09:01:11.438Z,15.92
2022-09-29T09:04:01.741Z,15.97
2022-09-29T09:07:06.291Z,16.09
2022-09-29T09:09:41.939Z,16.18
2022-09-29T09:12:18.508Z,16.27
2022-09-29T09:15:15.184Z,16.35
2022-09-29T09:18:40.682Z,16.45
2022-09-29T09:21:25.384Z,16.58
2022-09-29T09:24:06.423Z,16.70
2022-09-29T09:26:37.704Z,16.77
2022-09-29T09:29:17.375Z,16.88
2022-09-29T09:31:47.040Z,16.96
2022-09-29T09:34:42.088Z,17.05
2022-09-29T09:37:32.638Z,17.10
2022-09-29T09:40:12.659Z,17.18
2022-09-29T09:42:40.123Z,17.24
2022-09-29T09:45:23.875Z,17.30
2022-09-29T09:47:55.852Z,17.36
2022-09-29T09:50:25.039Z,17.39
2022-09-29T09:52:53.319Z,17.48
2022-09-29T09:55:27.271Z,17.55
2022-09-29T09:58:22.613Z,17.64
2022-09-29T10:01:12.303Z,17.69
2022-09-29T10:03:39.562Z,17.78
2022-09-29T10:06:07.166Z,17.85
2022-09-29T10:08:39.662Z,17.93
2022-09-29T10:11:19.153Z,17.98
2022-09-29T10:13:46.047Z,18.07
2022-09-29T10:16:26.118Z,18.12
2022-09-29T10:18:53.226Z,18.19
2022-09-29T10:21:27.284Z,18.23
2022-09-29T10:23:54.468Z,18.26
2022-09-29T10:26:26.432Z,18.32
2022-09-29T10:29:01.974Z,18.42
2022-09-29T10:31:31.470Z,18.49
2022-09-29T10:34:13.841Z,18.50
2022-09-29T10:36:49.191Z,18.58
2022-09-29T10:39:32.351Z,18.65
2022-09-29T10:41:59.382Z,18.70
2022-09-29T10:44:31.190Z,18.74
2022-09-29T10:46:58.550Z,18.76
2022-09-29T10:49:29.940Z,18.77
2022-09-29T10:52:04.652Z,18.87
2022-09-29T10:54:36.761Z,18.91
2022-09-29T10:57:14.375Z,18.93
2022-09-29T10:59:49.157Z,18.98
2022-09-29T11:02:28.309Z,19.04
2022-09-29T11:04:56.702Z,19.08
2022-09-29T11:07:23.470Z,19.14
2022-09-29T11:09:51.259Z,19.20
2022-09-29T11:12:28.804Z,19.24
2022-09-29T11:14:55.617Z,19.26
2022-09-29T11:17:23.148Z,19.32
2022-09-29T11:19:53.898Z,19.36
2022-09-29T11:22:38.961Z,19.43
2022-09-29T11:25:43.850Z,19.50
2022-09-29T11:28:35.048Z,19.54
2022-09-29T11:31:11.980Z,19.59
2022-09-29T11:34:08.115Z,19.63
2022-09-29T11:36:38.723Z,19.70
2022-09-29T11:39:21.748Z,19.76
2022-09-29T11:41:57.847Z,19.83
2022-09-29T11:44:43.407Z,19.87
2022-09-29T11:47:49.096Z,19.92
2022-09-29T11:50:33.880Z,19.97
2022-09-29T11:53:31.025Z,20.01
2022-09-29T11:56:31.904Z,20.05
2022-09-29T11:59:12.569Z,20.13
2022-09-29T12:01:43.711Z,20.19
2022-09-29T12:04:32.059Z,20.23
2022-09-29T12:07:17.667Z,20.27
2022-09-29T12:09:50.878Z,20.35
2022-09-29T12:12:24.815Z,20.37
2022-09-29T12:15:01.164Z,20.44
2022-09-29T12:17:31.324Z,20.48
2022-09-29T12:20:02.295Z,20.52
2022-09-29T12:22:33.162Z,20.55
2022-09-29T12:25:03.178Z,20.57
2022-09-29T12:27:40.450Z,20.59
2022-09-29T12:30:11.194Z,20.64
2022-09-29T12:32:40.167Z,20.68
2022-09-29T12:35:12.143Z,20.71
2022-09-29T12:37:42.110Z,20.78
2022-09-29T12:40:20.060Z,20.77
2022-09-29T12:42:59.430Z,20.82
2022-09-29T12:45:47.002Z,20.85
2022-09-29T12:48:39.600Z,20.87
2022-09-29T12:51:30.509Z,20.89
2022-09-29T12:54:07.276Z,20.91
2022-09-29T12:56:38.455Z,20.94
2022-09-29T12:59:09.567Z,20.96
2022-09-29T13:01:37.167Z,20.99
2022-09-29T13:04:15.351Z,21.03
2022-09-29T13:07:18.494Z,21.04
2022-09-29T13:09:51.053Z,21.05
2022-09-29T13:12:18.118Z,21.07
2022-09-29T13:14:50.607Z,21.07
2022-09-29T13:17:24.129Z,21.09
2022-09-29T13:20:20.552Z,21.10
2022-09-29T13:23:12.043Z,21.08
2022-09-29T13:26:07.096Z,21.11
2022-09-29T13:28:38.531Z,21.13
2022-09-29T13:31:07.577Z,21.11
2022-09-29T13:33:34.602Z,21.09
2022-09-29T13:36:01.574Z,21.10
2022-09-29T13:38:30.574Z,21.11
2022-09-29T13:41:10.571Z,21.10
2022-09-29T13:43:57.529Z,21.15
2022-09-29T13:46:30.607Z,21.15
2022-09-29T13:49:11.306Z,21.17
2022-09-29T13:52:01.800Z,21.19
2022-09-29T13:54:35.301Z,21.20
2022-09-29T13:57:05.854Z,21.21
2022-09-29T13:59:33.142Z,21.21
2022-09-29T14:02:00.162Z,21.21
2022-09-29T14:04:37.925Z,21.24
2022-09-29T14:07:06.124Z,21.25
2022-09-29T14:09:42.228Z,21.27
2022-09-29T14:12:16.865Z,21.28
2022-09-29T14:14:45.851Z,21.27
2022-09-29T14:17:42.735Z,21.29
2022-09-29T14:20:19.517Z,21.29
2022-09-29T14:22:46.558Z,21.29
2022-09-29T14:25:15.442Z,21.28
2022-09-29T14:28:01.506Z,21.30
2022-09-29T14:30:32.529Z,21.29
2022-09-29T14:33:01.190Z,21.30
2022-09-29T14:35:27.933Z,21.28
2022-09-29T14:38:14.694Z,21.27
2022-09-29T14:41:03.124Z,21.25
2022-09-29T14:44:10.372Z,21.23
2022-09-29T14:47:04.857Z,21.23
2022-09-29T14:50:08.689Z,21.22
2022-09-29T14:52:43.947Z,21.21
2022-09-29T14:55:32.301Z,21.18
2022-09-29T14:58:14.635Z,21.17
2022-09-29T15:00:57.812Z,21.15
2022-09-29T15:03:28.686Z,21.11
2022-09-29T15:06:12.164Z,21.10
2022-09-29T15:08:39.981Z,21.06
2022-09-29T15:11:27.261Z,21.03
2022-09-29T15:13:55.537Z,20.98
2022-09-29T15:16:31.853Z,20.96
2022-09-29T15:19:17.332Z,20.91
2022-09-29T15:21:55.552Z,20.89
2022-09-29T15:24:47.362Z,20.85
2022-09-29T15:27:14.865Z,20.81
2022-09-29T15:29:46.468Z,20.79
2022-09-29T15:32:20.955Z,20.75
2022-09-29T15:34:52.467Z,20.70
2022-09-29T15:37:22.247Z,20.67
2022-09-29T15:39:53.475Z,20.63
2022-09-29T15:42:22.239Z,20.60
2022-09-29T15:44:55.425Z,20.58
2022-09-29T15:47:42.895Z,20.53
2022-09-29T15:50:32.013Z,20.50
2022-09-29T15:53:02.760Z,20.47
2022-09-29T15:58:02.290Z,20.39
2022-09-29T16:00:35.810Z,20.37
2022-09-29T16:03:27.277Z,20.34
2022-09-29T16:06:00.278Z,20.30
2022-09-29T16:08:28.836Z,20.26
2022-09-29T16:10:57.600Z,20.22
2022-09-29T16:13:27.612Z,20.20
2022-09-29T16:15:59.910Z,20.18
2022-09-29T16:18:49.195Z,20.16
2022-09-29T16:21:20.609Z,20.10
2022-09-29T16:23:59.911Z,20.05
2022-09-29T16:26:40.717Z,20.00
2022-09-29T16:29:10.934Z,19.95
2022-09-29T16:31:42.022Z,19.91
2022-09-29T16:34:21.500Z,19.87
2022-09-29T16:36:59.263Z,19.83
2022-09-29T16:39:32.621Z,19.77
2022-09-29T16:42:05.342Z,19.75
2022-09-29T16:44:43.663Z,19.70
2022-09-29T16:47:19.726Z,19.64
2022-09-29T16:50:05.024Z,19.60
2022-09-29T16:52:44.965Z,19.54
2022-09-29T16:55:22.134Z,19.50
2022-09-29T16:58:01.889Z,19.43
2022-09-29T17:00:30.456Z,19.40
2022-09-29T17:02:57.858Z,19.34
2022-09-29T17:05:25.129Z,19.28
2022-09-29T17:07:59.972Z,19.24
2022-09-29T17:10:26.975Z,19.18
2022-09-29T17:12:54.791Z,19.14
2022-09-29T17:15:22.402Z,19.07
2022-09-29T17:17:49.843Z,19.04
2022-09-29T17:20:22.105Z,18.99
2022-09-29T17:22:51.852Z,18.95
2022-09-29T17:25:18.902Z,18.88
2022-09-29T17:28:04.376Z,18.84
2022-09-29T17:30:31.463Z,18.78
2022-09-29T17:32:58.953Z,18.71
2022-09-29T17:35:34.692Z,18.65
2022-09-29T17:38:01.801Z,18.60
2022-09-29T17:40:43.850Z,18.57
2022-09-29T17:43:10.880Z,18.50
2022-09-29T17:45:39.344Z,18.45
2022-09-29T17:48:06.148Z,18.42
2022-09-29T17:50:36.814Z,18.38
2022-09-29T17:53:04.376Z,18.32
2022-09-29T17:55:32.006Z,18.27
2022-09-29T17:57:59.289Z,18.23
2022-09-29T18:00:29.079Z,18.18
2022-09-29T18:02:59.416Z,18.14
2022-09-29T18:05:28.087Z,18.08
2022-09-29T18:07:55.989Z,18.06
2022-09-29T18:10:25.795Z,18.01
2022-09-29T18:12:53.209Z,17.97
2022-09-29T18:15:19.989Z,17.90
2022-09-29T18:17:47.073Z,17.84
2022-09-29T18:20:18.908Z,17.79
2022-09-29T18:22:47.195Z,17.75
2022-09-29T18:25:16.319Z,17.73
2022-09-29T18:27:44.347Z,17.67
2022-09-29T18:30:24.307Z,17.59
2022-09-29T18:32:53.971Z,17.54
2022-09-29T18:35:31.112Z,17.51
2022-09-29T18:37:58.854Z,17.44
2022-09-29T18:40:26.136Z,17.40
2022-09-29T18:42:53.275Z,17.39
2022-09-29T18:45:25.043Z,17.34
2022-09-29T18:47:53.333Z,17.27
2022-09-29T18:50:27.662Z,17.23
2022-09-29T18:52:55.434Z,17.21
2022-09-29T18:55:24.210Z,17.14
2022-09-29T18:57:51.658Z,17.14
2022-09-29T19:00:20.723Z,17.06
2022-09-29T19:02:47.637Z,17.04
2022-09-29T19:05:21.097Z,16.99
2022-09-29T19:07:49.071Z,16.92
2022-09-29T19:10:16.553Z,16.90
2022-09-29T19:12:48.350Z,16.87
2022-09-29T19:15:16.527Z,16.83
2022-09-29T19:17:44.954Z,16.78
2022-09-29T19:20:13.150Z,16.75
2022-09-29T19:22:42.693Z,16.68
2022-09-29T19:25:18.506Z,16.65
2022-09-29T19:27:45.871Z,16.66
2022-09-29T19:30:14.395Z,16.63
2022-09-29T19:32:41.722Z,16.64
2022-09-29T19:35:10.567Z,16.61
2022-09-29T19:37:37.956Z,16.50
2022-09-29T19:40:06.060Z,16.47
2022-09-29T19:42:33.157Z,16.48
2022-09-29T19:44:59.928Z,16.43
2022-09-29T19:47:26.729Z,16.40
2022-09-29T19:50:13.704Z,16.39
2022-09-29T19:52:40.496Z,16.36
2022-09-29T19:55:11.395Z,16.30
2022-09-29T19:57:42.429Z,16.29
2022-09-29T20:00:11.032Z,16.26
2022-09-29T20:02:37.880Z,16.21
2022-09-29T20:05:05.616Z,16.21
2022-09-29T20:07:32.749Z,16.18
2022-09-29T20:09:59.560Z,16.09
2022-09-29T20:12:26.406Z,16.13
2022-09-29T20:14:53.453Z,16.08
2022-09-29T20:17:20.214Z,16.06
2022-09-29T20:19:47.884Z,16.00
2022-09-29T20:22:15.537Z,15.97
2022-09-29T20:24:42.314Z,15.98
2022-09-29T20:27:09.308Z,15.93
2022-09-29T20:29:36.353Z,15.88
2022-09-29T20:32:03.123Z,15.89
2022-09-29T20:34:29.872Z,15.84
2022-09-29T20:36:56.993Z,15.83
2022-09-29T20:39:25.796Z,15.81
2022-09-29T20:41:55.667Z,15.72
2022-09-29T20:44:26.943Z,15.72
2022-09-29T20:46:54.766Z,15.74
2022-09-29T20:49:21.804Z,15.71
2022-09-29T20:51:48.900Z,15.64
2022-09-29T20:54:15.701Z,15.66
2022-09-29T20:56:42.592Z,15.58
2022-09-29T20:59:15.968Z,15.59
2022-09-29T21:01:43.467Z,15.60
2022-09-29T21:04:12.260Z,15.59
2022-09-29T21:06:41.060Z,15.51
2022-09-29T21:09:09.402Z,15.50
2022-09-29T21:11:39.844Z,15.50
2022-09-29T21:14:11.050Z,15.50
2022-09-29T21:16:41.828Z,15.42
2022-09-29T21:19:09.544Z,15.38
2022-09-29T21:21:36.360Z,15.38
2022-09-29T21:24:03.761Z,15.33
2022-09-29T21:26:30.988Z,15.31
2022-09-29T21:28:59.706Z,15.27
2022-09-29T21:31:28.541Z,15.27
2022-09-29T21:33:56.776Z,15.27
2022-09-29T21:36:25.061Z,15.26
2022-09-29T21:38:52.198Z,15.21
2022-09-29T21:41:32.513Z,15.17
2022-09-29T21:44:01.160Z,15.17
2022-09-29T21:46:30.283Z,15.16
2022-09-29T21:48:58.708Z,15.16
2022-09-29T21:51:27.593Z,15.10
2022-09-29T21:53:54.973Z,15.08
2022-09-29T21:56:22.676Z,15.09
2022-09-29T21:58:50.173Z,15.05
2022-09-29T22:01:17.100Z,14.98
2022-09-29T22:03:45.632Z,14.97
2022-09-29T22:06:13.472Z,15.00
2022-09-29T22:08:40.386Z,14.94
2022-09-29T22:11:07.403Z,14.90
2022-09-29T22:13:37.894Z,14.87
2022-09-29T22:16:10.226Z,14.82
2022-09-29T22:18:41.710Z,14.78
2022-09-29T22:21:12.662Z,14.80
2022-09-29T22:23:39.984Z,14.76
2022-09-29T22:26:11.057Z,14.72
2022-09-29T22:28:38.236Z,14.69
2022-09-29T22:31:09.528Z,14.68
2022-09-29T22:33:37.560Z,14.70
2022-09-29T22:36:05.024Z,14.71
2022-09-29T22:38:34.392Z,14.71
2022-09-29T22:41:01.429Z,14.69
2022-09-29T22:43:28.275Z,14.68
2022-09-29T22:45:55.360Z,14.67
2022-09-29T22:48:22.216Z,14.68
2022-09-29T22:50:49.227Z,14.68
2022-09-29T22:53:16.375Z,14.66
2022-09-29T22:55:43.221Z,14.63
2022-09-29T22:58:10.855Z,14.59
2022-09-29T23:00:38.532Z,14.56
2022-09-29T23:03:06.084Z,14.54
2022-09-29T23:05:33.392Z,14.54
2022-09-29T23:08:00.603Z,14.54
2022-09-29T23:10:27.455Z,14.47
2022-09-29T23:12:55.414Z,14.46
2022-09-29T23:15:22.626Z,14.40
2022-09-29T23:17:51.273Z,14.41
2022-09-29T23:20:18.319Z,14.42
2022-09-29T23:22:45.411Z,14.41
2022-09-29T23:25:12.651Z,14.43
2022-09-29T23:27:39.471Z,14.42
2022-09-29T23:30:06.913Z,14.41
2022-09-29T23:32:33.818Z,14.42
2022-09-29T23:35:00.662Z,14.40
2022-09-29T23:37:47.743Z,14.36
2022-09-29T23:40:14.676Z,14.37
2022-09-29T23:42:41.735Z,14.33
2022-09-29T23:45:08.738Z,14.33
2022-09-29T23:47:36.058Z,14.31
2022-09-29T23:50:03.370Z,14.34
2022-09-29T23:52:30.266Z,14.28
2022-09-29T23:54:57.122Z,14.28
2022-09-29T23:57:24.538Z,14.32
2022-09-29T23:59:51.390Z,14.27
